EDHK/KEL METAR and TAF weather

Enter ICAO airport designator
Station Type Date Time Source
EDHK METAR 2018/09/21 15:50 UTC NOAA

EDHK 211550Z 26020KT 9999 -SHRA SCT026 13/10 Q1002


Station Type Date Time Source
EDHK Decoded METAR 2018/09/21 15:50 UTC NOAA

Kiel / Holtenau Civilian, Germany (EDHK) 54-23N 010-10E
Sep 21, 2018 - 11:50 AM EDT / 2018.09.21 1550 UTC
Wind: from the W (260 degrees) at 23 MPH (20 KT):0
Visibility: greater than 7 mile(s):0
Sky conditions: partly cloudy
Weather: light rain showers
Temperature: 55 F (13 C)
Dew Point: 50 F (10 C)
Relative Humidity: 81%
Pressure (altimeter): 29.59 in. Hg (1002 hPa)
ob: EDHK 211550Z 26020KT 9999 -SHRA SCT026 13/10 Q1002
cycle: 16

Station Type Date Time Source
EDHK TAF 2013/08/11 06:39 UTC NOAA

TAF EDHK 110633Z 1106/1118 24005KT 9999 SCT030
BECMG 1106/1109 25010KT
TEMPO 1106/1118 27015G25KT 4500 SHRA BKN012CB


Example: see airport list